aviador You're here:

WAAA Decoded Metar

UJUNG PANDANG in INDONESIA
Report Time2017-08-22 09:00:00
UTC Time2017-08-22 09:08:47
Flight Rules vfr VFR
Wind280° at 05 kt
W.Decomp.*RWY 31: 4.2 kt HW 2.6 kt LCW
RWY 21: 1.9 kt HW 4.6 kt RCW
W.Rank280° ranks 9
Current wind is below 280° avg. (7.1)
Visibility9999 m
Phenomena:N/A
Clouds:Few 019 Hf
Expected CloudBase > 4,800 ft AGL from Temp-Dew spread
CeilingNone
Temp32°C (ISA +17)
Dew Point20°C (49% RH)
Heat Index34.1°C
QNH1007 hPa
Density Alt2,507 ft
Elevation46 ft
Report Wrong Elevation
Raw Report
METAR WAAA 220900Z 28005KT 230V340 9999 FEW019 32/20 Q1007 NOSIG=

Extra information for WAAA:More info

Metar Taf Metar & Taf Last 4 Metars F.Rules Stats Wind Profile Meteogram Temp Stats Airport Information Weather charts Add Link Nearby VenuesMetar ALERT Operation Metar Decoded Social comments